x

Western Caribbean - 195 Nm Wsw Of Negril Jamiaca (42057) Wave Buoy

10:50 - Sun 29th May 2016 All times are UTC.

  • Sig Wave height 3.3ft
  • Swell Direction
  • Peak Period 8s
  • Average Period 5s
  • Wind
    13mph, 16mph gusts
  • Sea Temp 84°f
  • Aire Temp 82°f
  • Sea Pressure 1012.4mb

More Historic Weather Station data

Upgrade to MSW Pro to gain access to the past 30 days of data for over 8000 Wavebouys and Weather Stations around the globe.

Join Pro

Comparision Forecast

View Surf forecast
   
dom 05/29 10:50 3.5ft 8s 5s 13 16 mph 1012.4mb 84f 82f
9:50 3ft 7s 5s 13 16 mph 1012.5mb 84f 83f
8:50 3.5ft 6s 5s 11 13 mph 1012.4mb 84f 83f
7:50 3.5ft 6s 4s 11 13 mph 1012.9mb 84f 83f
6:50 3.5ft 8s 5s 13
mph
1013.1mb 84f 82f
5:50 3.5ft 7s 5s 16 18 mph 1013.5mb 84f 83f
4:50 3.5ft 7s 5s 13 16 mph 1014mb 84f 83f
3:50 3.5ft 8s 5s 13 16 mph 1014.2mb 84f 83f
2:50 4ft 8s 5s 11 13 mph 1013.9mb 84f 83f
1:50 4ft 6s 5s 11 13 mph 1013.4mb 84f 82f
12:50 4ft 6s 5s 11 16 mph 1013mb 84f 83f
sáb 05/28 11:50 3.5ft 5s 5s 9 16 mph 1012.7mb 84f 81f
10:50 3.5ft 6s 5s 13 16 mph 1012mb 84f 81f
9:50 4.5ft 7s 5s 16 18 mph 1011.4mb 84f 81f
8:50 3.5ft 6s 5s 18 20 mph 1011.5mb 84f 82f
7:50 4ft 6s 5s 13 18 mph 1011.9mb 84f 83f
6:50 4ft 6s 5s 13 16 mph 1012.3mb 84f 83f
5:50 3.5ft 7s 5s 9 11 mph 1012.9mb 84f 82f
4:50 3.5ft 6s 5s 13 18 mph 1013.1mb 83f 83f
3:50 3.5ft 7s 5s 13 16 mph 1013.1mb 83f 83f
2:50 3.5ft 6s 5s 13 16 mph 1012.8mb 83f 83f
1:50 3.5ft 7s 5s 16 18 mph 1012.5mb 83f 82f
12:50 3.5ft 7s 5s 13 16 mph 1012.4mb 83f 82f
11:50 4ft 7s 5s 18 20 mph 1011.4mb 83f 81f
10:50 4ft 7s 5s 18 20 mph 1011mb 83f 80f
9:50 4.5ft 6s 5s 18 22 mph 1010.8mb 83f 80f
8:50 4.5ft 8s 5s 13 18 mph 1010.7mb 83f 81f
7:50 4.5ft 7s 5s 18 20 mph 1010.5mb 83f 81f
6:50 4.5ft 6s 5s 13 16 mph 1010.5mb 83f 82f
5:50 4.5ft 7s 5s 16 18 mph 1010.8mb 84f 83f
4:50 4.5ft 7s 5s 18 20 mph 1011.2mb 84f 83f
3:50 4.5ft 7s 5s 20 22 mph 1011.4mb 84f 81f
2:50 3.5ft 6s 5s 16 18 mph 1011.2mb 84f 83f
1:50 3.5ft 8s 5s 18 20 mph 1010.6mb 84f 83f
12:50 3.5ft 7s 5s 13 16 mph 1010.1mb 84f 83f
vie 05/27 11:50 3.5ft 8s 5s 16 18 mph 1009.7mb 84f 82f
10:50 3.5ft 8s 5s 9 11 mph 1009.7mb 84f 82f
9:50 3.5ft 7s 5s 16 18 mph 1009.4mb 84f 83f
8:50 3.5ft 7s 5s 4
mph
1009.8mb 84f 80f
7:50 3.5ft 8s 5s 13 16 mph 1010.1mb 84f 83f
6:50 3.5ft 6s 5s 13 16 mph 1010.8mb 84f 83f
5:50 3.5ft 5s 5s 13 20 mph 1011.2mb 84f 83f
4:50 4ft 6s 5s 13 16 mph 1011.6mb 84f 83f
3:50 4ft 8s 5s 16 18 mph 1011.8mb 84f 83f
2:50 4ft 5s 5s 16 20 mph 1011.8mb 84f 83f
1:50 4ft 6s 5s 16 20 mph 1011.4mb 84f 83f
12:50 4.5ft 6s 5s 16 18 mph 1010.7mb 84f 83f
11:50 4.5ft 9s 5s 16 18 mph 1010.6mb 84f 83f
10:50 4.5ft 9s 5s 13 16 mph 1010.5mb 84f 82f
9:50 4.5ft 9s 5s 16 18 mph 1010mb 84f 82f
7:50 4.5ft 9s 5s 13 16 mph 1010.4mb 84f 82f
6:50 4.5ft 9s 5s 16 18 mph 1010.7mb 84f 82f
5:50 5ft 9s 5s 16 20 mph 1011.7mb 84f 83f
4:50 4.5ft 9s 5s 16 18 mph 1012.3mb 84f 83f
3:50 4.5ft 9s 5s 18 20 mph 1012.1mb 84f 83f
2:50 4.5ft 9s 5s 16 18 mph 1012.3mb 84f 83f
1:50 4ft 9s 5s 16 18 mph 1012.4mb 84f 83f
12:50 4ft 9s 5s 13 18 mph 1012mb 84f 83f
jue 05/26 10:50 5ft 10s 6s 13 16 mph 1011.3mb 84f 84f
9:50 5ft 10s 6s 13 16 mph 1011.3mb 84f 84f
8:50 5ft 10s 6s 13
mph
1011.6mb 84f 84f
7:50 5ft 10s 6s 13 16 mph 1012mb 84f 84f
6:50 5ft 9s 6s 16 18 mph 1012.4mb 84f 84f
5:50 5ft 9s 6s 16 20 mph 1012.6mb 84f 84f
4:50 5ft 10s 6s 13 16 mph 1013.6mb 84f 83f
3:50 5ft 10s 6s 13 18 mph 1013.6mb 84f 83f
2:50 6ft 10s 6s 16 18 mph 1013.5mb 84f 83f
1:50 5.5ft 10s 6s 16 20 mph 1013.4mb 84f 83f
12:50 5ft 10s 6s 13 16 mph 1013.7mb 84f 83f
11:50 7ft 10s 7s 11 13 mph 1013.4mb 84f 83f
10:50 7.5ft 10s 7s 13
mph
1012.7mb 84f 83f
9:50 7.5ft 10s 7s 16 18 mph 1012.4mb 84f 83f
8:50 8ft 9s 7s 18 20 mph 1012.2mb 84f 83f
7:50 7ft 10s 7s 18 22 mph 1012.1mb 84f 83f
6:50 7ft 10s 7s 16 20 mph 1013mb 84f 83f
5:50 7ft 10s 7s 16 18 mph 1013.7mb 84f 83f
4:50 6.5ft 10s 6s 16 18 mph 1014.4mb 84f 83f
3:50 6.5ft 10s 6s 16 20 mph 1014.8mb 84f 83f
2:50 6.5ft 10s 6s 20 22 mph 1014.7mb 84f 84f
1:50 7ft 10s 6s 18 20 mph 1014.6mb 84f 84f
12:50 7ft 9s 7s 18 22 mph 1014.2mb 84f 84f
mié 05/25 11:50 7ft 9s 6s 16 20 mph 1013.8mb 84f 84f
10:50 6.5ft 8s 6s 18 20 mph 1013.3mb 84f 84f
9:50 6ft 8s 6s 13 16 mph 1013.1mb 84f 83f
8:50 6ft 9s 6s 11 13 mph 1013.5mb 84f 83f
7:50 6ft 9s 6s 16 18 mph 1013.8mb 84f 83f
6:50 6ft 8s 6s 16 18 mph 1014.2mb 84f 83f
5:50 6.5ft 8s 6s 16 18 mph 1014.4mb 84f 83f
4:50 7ft 8s 6s 16 20 mph 1015mb 84f 83f
3:50 8ft 8s 6s 16 18 mph 1015.2mb 84f 82f
2:50 7ft 6s 6s 13 18 mph 1015.1mb 84f 82f
1:50 6ft 7s 5s 16 18 mph 1015.2mb 84f 82f
12:50 6.5ft 7s 5s 18 20 mph 1014.7mb 84f 83f
11:50 6ft 6s 5s 18 22 mph 1014.7mb 84f 82f